Terminal Aerodrome Forecast
Issued by NWS Northern Indiana

Home | Current Version | Previous Version | Graphics & Text | Print | Product List | Glossary On
Versions: 1 2 3 4 5 6 7 8 9 10 11 12 13
890
FTUS43 KIWX 300537
TAFFWA
TAF
KFWA 300537Z 3006/0106 21006KT P6SM BKN150
     FM301100 23004KT 5SM BR BKN020
     FM301600 25009KT P6SM SCT200
     FM302100 25008KT P6SM BKN040=

USA.gov is the U.S. government's official web portal to all federal, state and local government web resources and services.